Time;durP1;ratioP1;P1;durP2;ratioP2;P2;SDS_P1;SDS_P2;PMS_P1;PMS_P2;Temp;Humidity;BMP_temperature;BMP_pressure;BME280_temperature;BME280_humidity;BME280_pressure;Samples;Min_cycle;Max_cycle;Signal;HPM_P1;HPM_P2
2022/07/07 00:00:51;;;;;;;;;2.00;1.00;;;;;22.34;74.61;102192.59;5076797;28;45521;-76
2022/07/07 00:03:16;;;;;;;;;1.00;1.00;;;;;22.36;74.60;102190.88;5076747;28;45390;-76
2022/07/07 00:05:42;;;;;;;;;1.50;1.00;;;;;22.33;74.50;102194.38;5077068;27;45324;-75
2022/07/07 00:08:08;;;;;;;;;1.00;1.00;;;;;22.27;74.81;102187.22;5077162;28;45394;-76
2022/07/07 00:10:33;;;;;;;;;2.00;1.00;;;;;22.23;75.64;102193.28;5077224;28;45591;-76
2022/07/07 00:12:59;;;;;;;;;2.50;2.00;;;;;22.21;75.68;102192.38;5080058;27;45478;-76
2022/07/07 00:15:25;;;;;;;;;1.00;1.00;;;;;22.17;75.46;102190.56;5076834;27;45351;-76
2022/07/07 00:17:50;;;;;;;;;1.00;1.00;;;;;22.13;76.34;102195.75;5076158;27;45520;-76
2022/07/07 00:20:16;;;;;;;;;0.50;0.50;;;;;22.09;76.54;102193.03;5077898;27;45324;-77
2022/07/07 00:22:41;;;;;;;;;1.00;1.00;;;;;22.07;76.82;102193.88;5058479;28;46984;-76
2022/07/07 00:25:07;;;;;;;;;2.75;1.75;;;;;22.04;77.07;102192.03;5075744;28;45321;-76
2022/07/07 00:27:33;;;;;;;;;2.00;2.00;;;;;22.00;76.96;102189.31;5080295;27;45374;-76
2022/07/07 00:29:59;;;;;;;;;2.00;2.00;;;;;21.99;77.58;102200.72;5076359;28;45530;-76
2022/07/07 00:32:24;;;;;;;;;1.25;1.25;;;;;21.96;78.23;102188.38;5084510;27;45227;-76
2022/07/07 00:34:50;;;;;;;;;2.00;2.00;;;;;21.88;77.50;102196.13;5094708;27;45466;-76
2022/07/07 00:37:16;;;;;;;;;1.00;1.00;;;;;21.84;78.02;102186.41;5076598;27;45549;-76
2022/07/07 00:39:41;;;;;;;;;2.00;2.00;;;;;21.80;78.45;102181.91;5058552;28;45425;-75
2022/07/07 00:42:12;;;;;;;;;3.00;2.00;;;;;21.73;78.63;102172.13;5076792;27;46017;-76
2022/07/07 00:44:37;;;;;;;;;3.50;2.00;;;;;21.74;79.27;102171.25;5092339;27;45508;-76
2022/07/07 00:47:05;;;;;;;;;1.00;1.00;;;;;21.68;79.28;102166.75;5082533;27;45296;-76
2022/07/07 00:49:32;;;;;;;;;2.00;2.00;;;;;21.63;79.53;102161.38;5075269;28;45580;-76
2022/07/07 00:51:59;;;;;;;;;1.00;1.00;;;;;21.61;80.09;102162.19;5079723;27;46048;-76
2022/07/07 00:54:25;;;;;;;;;2.00;2.00;;;;;21.61;80.39;102164.81;5081188;27;45392;-76
2022/07/07 00:56:51;;;;;;;;;2.00;2.00;;;;;21.54;80.13;102158.53;5099914;27;45276;-76
2022/07/07 00:59:16;;;;;;;;;2.00;2.00;;;;;21.47;80.85;102149.59;5061331;28;45697;-76
2022/07/07 01:01:42;;;;;;;;;3.25;2.25;;;;;21.41;81.56;102144.19;5059520;28;46003;-75
2022/07/07 01:04:11;;;;;;;;;1.75;1.25;;;;;21.41;81.57;102141.56;5078169;27;45699;-76
2022/07/07 01:06:37;;;;;;;;;2.00;1.00;;;;;21.44;81.84;102149.53;5098461;27;45409;-75
2022/07/07 01:09:04;;;;;;;;;0.00;0.00;;;;;21.48;81.66;102138.22;5099921;27;45779;-76
2022/07/07 01:11:47;;;;;;;;;3.75;1.75;;;;;21.50;82.02;102144.38;5097703;27;45472;-76
2022/07/07 01:14:13;;;;;;;;;2.00;2.00;;;;;21.47;81.40;102143.44;5099675;27;45673;-76
2022/07/07 01:16:39;;;;;;;;;2.25;1.75;;;;;21.45;82.28;102139.88;5099778;27;45339;-76
2022/07/07 01:19:06;;;;;;;;;2.25;2.25;;;;;21.42;82.22;102137.19;5099649;27;45532;-76
2022/07/07 01:21:36;;;;;;;;;2.00;2.00;;;;;21.43;82.12;102138.97;5098141;27;45250;-76
2022/07/07 01:24:02;;;;;;;;;3.75;3.00;;;;;21.42;82.65;102140.69;5078877;27;45275;-76
2022/07/07 01:26:29;;;;;;;;;1.00;1.00;;;;;21.40;82.28;102144.16;5093613;27;45411;-76
2022/07/07 01:28:55;;;;;;;;;2.00;2.00;;;;;21.36;83.04;102144.94;5064511;28;45470;-76
2022/07/07 01:31:20;;;;;;;;;1.50;1.50;;;;;21.30;83.35;102138.69;5079218;27;45441;-76
2022/07/07 01:33:46;;;;;;;;;2.00;2.00;;;;;21.30;83.17;102135.16;5079160;28;45409;-76
2022/07/07 01:36:14;;;;;;;;;2.00;2.00;;;;;21.28;83.52;102135.13;5079822;27;45346;-76
2022/07/07 01:38:40;;;;;;;;;3.00;2.00;;;;;21.28;84.56;102127.25;5079591;27;45316;-76
2022/07/07 01:41:06;;;;;;;;;1.25;1.25;;;;;21.26;83.57;102131.56;5097826;27;46124;-76
2022/07/07 01:43:31;;;;;;;;;2.00;2.00;;;;;21.23;83.87;102131.50;5079857;27;45415;-76
2022/07/07 01:45:57;;;;;;;;;2.25;2.00;;;;;21.23;83.93;102131.50;5099441;27;45353;-76
2022/07/07 01:48:23;;;;;;;;;2.00;2.00;;;;;21.24;83.87;102133.28;5087358;27;45620;-76
2022/07/07 01:50:49;;;;;;;;;3.00;2.00;;;;;21.24;83.72;102129.78;5078649;28;45556;-75
2022/07/07 01:53:15;;;;;;;;;1.00;1.00;;;;;21.22;83.83;102119.19;5093009;27;45500;-76
2022/07/07 01:55:41;;;;;;;;;1.75;1.75;;;;;21.23;84.46;102118.34;5099913;27;45504;-76
2022/07/07 01:58:06;;;;;;;;;1.00;1.00;;;;;21.22;83.91;102115.69;5092493;27;45237;-76
2022/07/07 02:00:32;;;;;;;;;2.00;2.00;;;;;21.22;84.16;102119.19;5084870;27;45848;-76
2022/07/07 02:02:58;;;;;;;;;1.00;1.00;;;;;21.22;84.40;102120.94;5084267;27;45771;-76
2022/07/07 02:05:24;;;;;;;;;3.00;2.00;;;;;21.21;84.22;102111.25;5081471;27;45422;-76
2022/07/07 02:07:49;;;;;;;;;2.00;2.00;;;;;21.19;84.62;102105.97;5086363;27;45357;-76
2022/07/07 02:11:12;;;;;;;;;3.00;1.25;;;;;21.19;84.54;102108.59;5078521;27;45230;-76
2022/07/07 02:13:04;;;;;;;;;1.25;1.00;;;;;21.18;84.49;102105.06;5093787;27;45477;-76
2022/07/07 02:15:31;;;;;;;;;2.00;2.00;;;;;21.18;85.27;102097.16;5099254;27;45400;-77
2022/07/07 02:17:56;;;;;;;;;5.75;2.75;;;;;21.14;84.93;102097.97;5097083;27;45466;-76
2022/07/07 02:20:22;;;;;;;;;2.00;2.00;;;;;21.13;84.90;102103.19;5096136;27;45757;-76
2022/07/07 02:22:48;;;;;;;;;2.25;2.25;;;;;21.10;85.35;102103.16;5086111;27;45560;-76
2022/07/07 02:25:13;;;;;;;;;2.00;2.00;;;;;21.12;85.20;102104.03;5078355;27;46781;-76
2022/07/07 02:27:39;;;;;;;;;1.75;1.75;;;;;21.10;86.17;102111.91;5079960;27;45548;-76
2022/07/07 02:30:06;;;;;;;;;2.00;2.00;;;;;21.08;85.73;102099.59;5089084;27;46095;-76
2022/07/07 02:32:32;;;;;;;;;2.50;2.00;;;;;21.03;87.26;102103.00;5059934;28;45666;-76
2022/07/07 02:34:58;;;;;;;;;2.75;1.75;;;;;21.00;87.01;102107.31;5093630;27;45623;-76
2022/07/07 02:37:25;;;;;;;;;3.00;2.00;;;;;20.96;86.84;102108.06;5098281;27;45366;-76
2022/07/07 02:39:51;;;;;;;;;1.00;1.00;;;;;20.90;87.08;102107.94;5085458;27;45477;-76
2022/07/07 02:42:17;;;;;;;;;2.00;2.00;;;;;20.86;87.24;102110.50;5079312;27;45244;-76
2022/07/07 02:44:42;;;;;;;;;3.00;3.00;;;;;20.84;87.57;102108.69;5098957;27;45287;-77
2022/07/07 02:47:08;;;;;;;;;2.50;2.00;;;;;20.77;87.96;102109.41;5098392;27;45430;-76
2022/07/07 02:49:34;;;;;;;;;2.00;2.00;;;;;20.75;88.99;102111.13;5077982;28;45314;-76
2022/07/07 02:52:00;;;;;;;;;2.25;2.25;;;;;20.70;88.67;102101.34;5086666;27;45264;-76
2022/07/07 02:54:25;;;;;;;;;1.75;1.50;;;;;20.68;90.19;102105.66;5098217;27;45290;-76
2022/07/07 02:56:51;;;;;;;;;2.00;2.00;;;;;20.68;88.99;102112.69;5098454;27;45282;-76
2022/07/07 02:59:17;;;;;;;;;1.25;1.00;;;;;20.66;89.54;102110.03;5097748;27;45361;-76
2022/07/07 03:01:42;;;;;;;;;2.00;2.00;;;;;20.66;90.32;102109.13;5083479;27;45766;-76
2022/07/07 03:04:08;;;;;;;;;2.00;2.00;;;;;20.64;91.11;102111.72;5078132;28;45351;-76
2022/07/07 03:06:34;;;;;;;;;3.25;2.75;;;;;20.61;90.74;102102.88;5078354;27;45413;-77
2022/07/07 03:08:59;;;;;;;;;4.00;3.00;;;;;20.58;90.75;102095.78;5078286;27;45766;-77
2022/07/07 03:11:25;;;;;;;;;2.50;2.00;;;;;20.53;90.78;102098.28;5077611;27;45476;-76
2022/07/07 03:13:51;;;;;;;;;2.00;2.00;;;;;20.54;90.94;102100.06;5077683;27;45328;-76
2022/07/07 03:16:16;;;;;;;;;2.50;2.50;;;;;20.53;90.47;102094.78;5077608;28;45576;-76
2022/07/07 03:18:42;;;;;;;;;1.75;1.75;;;;;20.53;91.52;102100.06;5077920;27;45495;-76
2022/07/07 03:21:08;;;;;;;;;2.25;2.25;;;;;20.53;91.29;102105.31;5077722;27;45355;-76
2022/07/07 03:23:33;;;;;;;;;3.00;3.00;;;;;20.50;91.73;102099.97;5072218;27;45229;-76
2022/07/07 03:25:59;;;;;;;;;3.00;2.00;;;;;20.48;91.31;102097.31;5076168;27;45235;-76
2022/07/07 03:28:24;;;;;;;;;1.75;1.75;;;;;20.49;92.28;102101.72;5077044;27;45444;-76
2022/07/07 03:30:50;;;;;;;;;1.50;1.50;;;;;20.49;92.25;102099.09;5077157;27;45186;-76
2022/07/07 03:33:15;;;;;;;;;4.50;3.00;;;;;20.47;92.12;102103.41;5089660;27;45240;-76
2022/07/07 03:35:42;;;;;;;;;3.00;3.00;;;;;20.47;92.37;102099.88;5077800;28;45292;-76
2022/07/07 03:38:07;;;;;;;;;2.00;2.00;;;;;20.45;92.64;102091.97;5076758;27;45358;-76
2022/07/07 03:40:34;;;;;;;;;1.75;1.75;;;;;20.43;93.55;102098.94;5077001;27;45490;-76
2022/07/07 03:43:00;;;;;;;;;2.75;2.75;;;;;20.36;93.26;102086.47;5076938;27;45265;-76
2022/07/07 03:45:25;;;;;;;;;3.00;2.00;;;;;20.32;93.47;102092.50;5077626;28;45435;-76
2022/07/07 03:47:51;;;;;;;;;2.00;2.00;;;;;20.29;94.26;102088.06;5076570;27;45444;-76
2022/07/07 03:50:16;;;;;;;;;3.25;2.75;;;;;20.29;94.96;102090.69;5058683;28;45483;-76
2022/07/07 03:52:42;;;;;;;;;3.00;3.00;;;;;20.28;95.22;102088.03;5079221;27;45276;-76
2022/07/07 03:55:09;;;;;;;;;3.50;3.50;;;;;20.29;94.86;102085.44;5094618;27;45177;-76
2022/07/07 03:57:35;;;;;;;;;2.75;2.75;;;;;20.25;94.85;102073.97;5088210;27;46058;-76
2022/07/07 04:00:02;;;;;;;;;3.00;2.00;;;;;20.24;95.76;102082.69;5081395;27;45838;-76
2022/07/07 04:02:28;;;;;;;;;4.00;4.00;;;;;20.24;95.43;102079.19;5078623;27;45449;-76
2022/07/07 04:04:53;;;;;;;;;2.00;0.00;;;;;20.23;96.52;102088.81;5083143;27;45524;-76
2022/07/07 04:07:20;;;;;;;;;3.00;3.00;;;;;20.23;96.64;102086.16;5076452;28;46352;-76
2022/07/07 04:09:46;;;;;;;;;2.00;1.75;;;;;20.21;97.05;102089.63;5076175;27;45328;-76
2022/07/07 04:12:11;;;;;;;;;2.00;2.00;;;;;20.19;97.47;102083.44;5059933;28;45348;-75
2022/07/07 04:14:37;;;;;;;;;2.50;2.50;;;;;20.20;97.61;102085.22;5072247;27;45493;-77
2022/07/07 04:17:03;;;;;;;;;4.25;3.50;;;;;20.19;97.31;102088.69;5093390;27;45472;-76
2022/07/07 04:19:29;;;;;;;;;2.50;2.25;;;;;20.16;98.70;102086.88;5097216;27;45373;-78
2022/07/07 04:21:54;;;;;;;;;2.75;2.25;;;;;20.17;99.16;102083.41;5092026;27;45254;-77
2022/07/07 04:24:20;;;;;;;;;2.50;2.00;;;;;20.14;99.60;102082.44;5097129;27;45581;-77
2022/07/07 04:26:46;;;;;;;;;3.00;3.00;;;;;20.09;99.44;102084.91;5096426;27;46202;-77
2022/07/07 04:29:11;;;;;;;;;3.50;2.00;;;;;20.06;100.00;102084.88;5058294;27;45454;-77
2022/07/07 04:31:39;;;;;;;;;3.00;3.00;;;;;20.04;100.00;102086.56;5077520;27;45323;-77
2022/07/07 04:34:05;;;;;;;;;6.00;4.00;;;;;20.04;100.00;102084.81;5080501;27;45393;-77
2022/07/07 04:36:31;;;;;;;;;3.00;3.00;;;;;20.03;100.00;102083.00;5075653;27;46054;-77
2022/07/07 04:38:56;;;;;;;;;3.75;3.00;;;;;20.01;100.00;102081.22;5085117;27;45462;-77
2022/07/07 04:41:22;;;;;;;;;4.25;3.00;;;;;19.99;100.00;102086.44;5080584;27;45480;-77
2022/07/07 04:43:47;;;;;;;;;3.00;3.00;;;;;20.00;100.00;102088.22;5066022;28;45384;-77
2022/07/07 04:46:13;;;;;;;;;4.75;4.00;;;;;20.01;100.00;102096.97;5079299;27;45799;-77
2022/07/07 04:48:38;;;;;;;;;2.00;2.00;;;;;20.02;100.00;102111.91;5086129;27;45597;-77
2022/07/07 04:51:05;;;;;;;;;5.00;3.75;;;;;20.01;100.00;102113.66;5075380;27;45240;-77
2022/07/07 04:53:30;;;;;;;;;3.50;2.75;;;;;19.93;100.00;102118.72;5057883;28;45315;-77
2022/07/07 04:55:56;;;;;;;;;4.00;3.50;;;;;19.93;100.00;102118.72;5075781;28;45962;-77
2022/07/07 04:58:22;;;;;;;;;1.50;0.75;;;;;19.95;100.00;102117.00;5069346;27;45398;-77
2022/07/07 05:00:48;;;;;;;;;5.50;4.25;;;;;19.98;100.00;102112.69;5096100;27;45859;-76
2022/07/07 05:03:14;;;;;;;;;6.00;5.00;;;;;20.01;100.00;102116.28;5092090;27;45609;-76
2022/07/07 05:05:41;;;;;;;;;7.00;3.50;;;;;20.08;100.00;102123.47;5061050;28;46202;-77
2022/07/07 05:08:06;;;;;;;;;5.75;4.00;;;;;20.13;100.00;102123.59;5057233;27;45372;-77
2022/07/07 05:10:32;;;;;;;;;3.50;3.00;;;;;20.16;100.00;102125.41;5068197;27;45492;-77
2022/07/07 05:12:57;;;;;;;;;5.75;4.00;;;;;20.19;100.00;102120.25;5069051;27;45378;-77
2022/07/07 05:15:23;;;;;;;;;3.00;3.00;;;;;20.21;100.00;102119.41;5091936;27;46379;-77
2022/07/07 05:17:48;;;;;;;;;4.00;4.00;;;;;20.27;100.00;102123.94;5075563;27;45482;-77
2022/07/07 05:20:14;;;;;;;;;4.75;3.75;;;;;20.31;100.00;102117.94;5086762;27;45193;-76
2022/07/07 05:22:40;;;;;;;;;3.00;3.00;;;;;20.38;100.00;102126.88;5081696;27;45590;-76
2022/07/07 05:25:06;;;;;;;;;3.00;3.00;;;;;20.41;100.00;102127.84;5076340;27;45655;-75
2022/07/07 05:27:31;;;;;;;;;3.00;3.00;;;;;20.38;100.00;102127.75;5094070;27;45347;-76
2022/07/07 05:29:57;;;;;;;;;3.00;3.00;;;;;20.36;100.00;102121.56;5096012;27;45456;-75
2022/07/07 05:32:23;;;;;;;;;1.00;1.00;;;;;20.36;100.00;102134.69;5081539;27;45312;-76
2022/07/07 05:34:48;;;;;;;;;4.00;4.00;;;;;20.39;100.00;102128.66;5075252;28;46194;-75
2022/07/07 05:37:14;;;;;;;;;4.25;3.00;;;;;20.43;100.00;102127.84;5079267;27;45403;-76
2022/07/07 05:39:39;;;;;;;;;4.00;4.00;;;;;20.49;100.00;102133.28;5078050;27;45457;-76
2022/07/07 05:42:05;;;;;;;;;5.50;4.00;;;;;20.48;100.00;102136.78;5080172;27;45640;-76
2022/07/07 05:44:31;;;;;;;;;5.00;4.25;;;;;20.49;100.00;102135.03;5079752;27;46114;-76
2022/07/07 05:46:56;;;;;;;;;2.00;2.00;;;;;20.46;100.00;102137.59;5083034;27;45243;-76
2022/07/07 05:49:22;;;;;;;;;5.00;3.50;;;;;20.47;100.00;102134.09;5099617;27;45316;-77
2022/07/07 05:51:48;;;;;;;;;4.75;4.00;;;;;20.47;100.00;102132.34;5094574;27;45442;-77
2022/07/07 05:54:14;;;;;;;;;4.75;2.50;;;;;20.46;100.00;102132.34;5080698;27;45831;-77
2022/07/07 05:56:40;;;;;;;;;2.25;2.25;;;;;20.50;100.00;102136.81;5080484;27;45961;-74
2022/07/07 05:59:05;;;;;;;;;4.25;4.25;;;;;20.51;100.00;102134.22;5096831;27;45409;-76
2022/07/07 06:01:31;;;;;;;;;8.25;4.00;;;;;20.55;100.00;102138.69;5097588;27;45235;-77
2022/07/07 06:03:56;;;;;;;;;6.00;3.75;;;;;20.54;100.00;102136.03;5098351;27;45446;-77
2022/07/07 06:06:22;;;;;;;;;4.50;4.50;;;;;20.58;100.00;102143.13;5084323;27;45433;-77
2022/07/07 06:08:51;;;;;;;;;3.00;3.00;;;;;20.60;100.00;102143.19;5082544;28;45346;-76
2022/07/07 06:11:16;;;;;;;;;4.75;4.00;;;;;20.64;100.00;102158.19;5091042;27;45329;-77
2022/07/07 06:13:42;;;;;;;;;3.25;3.00;;;;;20.66;100.00;102164.38;5091254;27;46592;-76
2022/07/07 06:16:07;;;;;;;;;2.25;2.25;;;;;20.62;100.00;102158.16;5079112;27;45322;-77
2022/07/07 06:18:33;;;;;;;;;5.75;4.25;;;;;20.62;100.00;102171.31;5079194;27;45227;-76
2022/07/07 06:20:58;;;;;;;;;2.75;2.75;;;;;20.64;100.00;102167.00;5095770;27;45510;-77
2022/07/07 06:23:24;;;;;;;;;2.25;2.00;;;;;20.67;100.00;102171.44;5096623;27;45537;-76
2022/07/07 06:25:50;;;;;;;;;5.00;2.00;;;;;20.69;100.00;102178.50;5096681;27;45310;-76
2022/07/07 06:28:15;;;;;;;;;2.75;2.75;;;;;20.69;100.00;102181.13;5078636;27;45356;-76
2022/07/07 06:30:41;;;;;;;;;4.00;2.75;;;;;20.70;100.00;102185.56;5081628;27;45586;-76
2022/07/07 06:33:07;;;;;;;;;5.25;3.00;;;;;20.71;100.00;102191.72;5080927;27;45469;-76
2022/07/07 06:35:32;;;;;;;;;4.75;3.75;;;;;20.68;100.00;102192.50;5079438;27;45392;-76
2022/07/07 06:37:58;;;;;;;;;3.50;2.00;;;;;20.66;100.00;102183.72;5066382;27;45522;-77
2022/07/07 06:40:24;;;;;;;;;5.00;3.25;;;;;20.68;100.00;102181.09;5078520;27;45870;-77
2022/07/07 06:42:49;;;;;;;;;4.00;4.00;;;;;20.76;100.00;102191.88;5077556;27;45890;-77
2022/07/07 06:45:15;;;;;;;;;3.75;2.75;;;;;20.82;100.00;102199.91;5078648;27;45287;-76
2022/07/07 06:47:41;;;;;;;;;7.25;4.00;;;;;20.88;100.00;102186.91;5089932;27;45475;-77
2022/07/07 06:50:07;;;;;;;;;3.25;3.25;;;;;20.94;100.00;102187.03;5083907;27;45422;-77
2022/07/07 06:52:32;;;;;;;;;3.00;3.00;;;;;21.00;100.00;102181.03;5075928;27;45349;-83
2022/07/07 06:54:58;;;;;;;;;2.00;2.00;;;;;21.06;100.00;102183.78;5077428;27;45458;-82
2022/07/07 06:57:24;;;;;;;;;3.00;3.00;;;;;21.13;100.00;102190.09;5102831;27;45312;-81
2022/07/07 06:59:49;;;;;;;;;2.75;2.50;;;;;21.17;100.00;102184.06;5090740;27;45509;-83
2022/07/07 07:02:15;;;;;;;;;3.50;3.00;;;;;21.21;100.00;102185.00;5077333;27;46382;-83
2022/07/07 07:04:41;;;;;;;;;3.00;3.00;;;;;21.24;100.00;102191.22;5077935;27;45305;-83
2022/07/07 07:07:06;;;;;;;;;2.00;2.00;;;;;21.25;100.00;102189.50;5079205;28;45489;-82
2022/07/07 07:09:32;;;;;;;;;3.00;1.25;;;;;21.24;100.00;102193.00;5082689;27;45566;-82
2022/07/07 07:11:57;;;;;;;;;3.75;2.75;;;;;21.25;100.00;102193.00;5081493;27;45924;-80
2022/07/07 07:14:23;;;;;;;;;2.00;2.00;;;;;21.30;100.00;102196.66;5087921;27;45434;-85
2022/07/07 07:16:49;;;;;;;;;4.25;3.00;;;;;21.34;100.00;102205.50;5085001;27;45438;-86
2022/07/07 07:19:14;;;;;;;;;2.50;1.50;;;;;21.34;100.00;102206.38;5092938;27;45418;-86
2022/07/07 07:21:40;;;;;;;;;1.25;1.25;;;;;21.40;100.00;102203.00;5088099;28;45413;-85
2022/07/07 07:24:06;;;;;;;;;6.00;4.00;;;;;21.49;100.00;102216.38;5088136;27;45553;-87
2022/07/07 07:26:32;;;;;;;;;4.00;4.00;;;;;21.56;100.00;102219.16;5082630;27;45427;-84
2022/07/07 07:28:57;;;;;;;;;1.25;1.25;;;;;21.56;99.05;102219.16;5093433;27;45326;-88
2022/07/07 07:31:23;;;;;;;;;2.00;2.00;;;;;21.49;99.02;102219.00;5087955;27;45318;-85
2022/07/07 07:33:49;;;;;;;;;3.50;2.25;;;;;21.41;100.00;102220.59;5079908;28;45402;-83
2022/07/07 07:36:15;;;;;;;;;4.00;2.00;;;;;21.33;100.00;102227.44;5092354;27;45315;-86
2022/07/07 07:38:40;;;;;;;;;2.50;2.50;;;;;21.26;100.00;102220.25;5094647;27;45239;-83
2022/07/07 07:41:07;;;;;;;;;2.00;2.00;;;;;21.23;100.00;102228.09;5057812;28;46771;-84
2022/07/07 07:43:43;;;;;;;;;2.75;2.25;;;;;21.19;100.00;102230.63;5061718;28;45782;-84
2022/07/07 07:46:08;;;;;;;;;2.00;2.00;;;;;21.21;100.00;102227.16;5095617;27;45879;-85
2022/07/07 07:48:34;;;;;;;;;2.00;2.00;;;;;21.21;100.00;102235.06;5073074;27;45537;-91
2022/07/07 07:50:59;;;;;;;;;1.75;1.75;;;;;21.16;100.00;102230.59;5074509;28;45567;-89
2022/07/07 07:53:25;;;;;;;;;2.00;2.00;;;;;21.19;100.00;102230.63;5067718;28;45393;-89
2022/07/07 07:55:51;;;;;;;;;3.25;2.00;;;;;21.24;100.00;102233.38;5080850;27;45319;-90
2022/07/07 07:58:17;;;;;;;;;4.00;2.00;;;;;21.33;100.00;102232.72;5102259;27;45552;-92
2022/07/07 08:00:43;;;;;;;;;2.00;2.00;;;;;21.48;100.00;102233.06;5104264;27;45193;-93
2022/07/07 08:03:09;;;;;;;;;1.50;1.50;;;;;21.68;98.54;102227.38;5108637;27;45204;-93
2022/07/07 08:05:34;;;;;;;;;4.00;2.00;;;;;21.90;97.34;102238.38;5076814;27;45453;-92
2022/07/07 08:08:00;;;;;;;;;1.00;1.00;;;;;22.06;94.28;102234.28;5087719;27;45503;-88
2022/07/07 08:10:26;;;;;;;;;3.00;3.00;;;;;22.18;91.98;102229.25;5060243;28;45371;-88
2022/07/07 08:12:51;;;;;;;;;2.00;1.00;;;;;22.30;89.70;102227.72;5079722;27;45426;-87
2022/07/07 08:15:18;;;;;;;;;1.00;1.00;;;;;22.35;89.01;102228.69;5076862;27;45378;-88
2022/07/07 08:17:44;;;;;;;;;1.00;1.00;;;;;22.44;88.65;102226.25;5082091;27;45876;-80
2022/07/07 08:20:10;;;;;;;;;1.00;1.00;;;;;22.54;87.31;102233.47;5073209;27;47815;-91
2022/07/07 08:22:36;;;;;;;;;1.75;1.75;;;;;22.57;86.99;102227.34;5083569;27;45782;-88
2022/07/07 08:25:01;;;;;;;;;1.00;1.00;;;;;22.61;86.46;102225.66;5077170;27;45350;-89
2022/07/07 08:27:27;;;;;;;;;1.00;1.00;;;;;22.62;86.49;102227.44;5076452;27;45504;-81
2022/07/07 08:29:53;;;;;;;;;1.75;1.00;;;;;22.60;86.24;102221.25;5081775;27;46092;-81
2022/07/07 08:32:19;;;;;;;;;2.00;0.25;;;;;22.54;86.24;102214.13;5078814;27;45248;-86
2022/07/07 08:34:45;;;;;;;;;1.00;1.00;;;;;22.59;86.35;102216.81;5083924;27;45250;-82
2022/07/07 08:37:11;;;;;;;;;1.00;1.00;;;;;22.59;86.65;102215.06;5061275;28;45233;-84
2022/07/07 08:39:37;;;;;;;;;0.75;0.75;;;;;22.60;86.65;102214.19;5066480;27;45283;-83
2022/07/07 08:42:03;;;;;;;;;2.00;2.00;;;;;22.60;86.80;102221.25;5101254;27;45683;-85
2022/07/07 08:44:29;;;;;;;;;1.00;1.00;;;;;22.65;85.70;102222.19;5099983;27;45414;-82
2022/07/07 08:46:55;;;;;;;;;0.50;0.50;;;;;22.78;85.88;102229.47;5097760;27;45354;-86
2022/07/07 08:49:21;;;;;;;;;1.75;0.75;;;;;22.94;83.61;102229.75;5097741;27;45302;-86
2022/07/07 08:51:46;;;;;;;;;1.75;1.75;;;;;23.10;81.40;102238.78;5097485;27;45716;-85
2022/07/07 08:54:14;;;;;;;;;1.50;1.00;;;;;23.22;79.04;102239.00;5065553;28;45194;-86
2022/07/07 08:56:41;;;;;;;;;1.00;1.00;;;;;23.32;78.26;102234.75;5079173;28;45204;-85
2022/07/07 08:59:11;;;;;;;;;0.50;0.50;;;;;23.45;78.01;102243.72;5077461;28;47194;-85
2022/07/07 09:01:37;;;;;;;;;1.00;1.00;;;;;23.53;77.28;102238.56;5076175;28;45798;-85
2022/07/07 09:04:04;;;;;;;;;0.25;0.25;;;;;23.55;76.40;102234.19;5076974;28;45356;-85
2022/07/07 09:06:30;;;;;;;;;1.00;1.00;;;;;23.63;75.89;102235.16;5074750;28;45232;-82
2022/07/07 09:08:57;;;;;;;;;2.00;1.00;;;;;23.65;74.95;102233.44;5063330;28;46064;-85
2022/07/07 09:11:30;;;;;;;;;1.00;1.00;;;;;23.69;75.29;102239.66;5058129;28;45653;-82
2022/07/07 09:14:15;;;;;;;;;0.75;0.75;;;;;23.73;75.50;102238.81;5064914;28;45177;-80
2022/07/07 09:16:41;;;;;;;;;1.00;1.00;;;;;23.74;76.01;102236.19;5084546;27;45585;-83
2022/07/07 09:19:20;;;;;;;;;2.00;2.00;;;;;23.76;76.15;102238.84;5072336;27;45504;-78
2022/07/07 09:21:47;;;;;;;;;1.25;1.25;;;;;23.70;76.71;102249.34;5062762;27;45851;-82
2022/07/07 09:24:13;;;;;;;;;3.75;1.25;;;;;23.70;76.58;102246.72;5089228;27;45334;-84
2022/07/07 09:26:45;;;;;;;;;2.00;2.00;;;;;23.73;76.40;102250.28;5060497;28;45385;-81
2022/07/07 09:29:22;;;;;;;;;1.00;1.00;;;;;23.77;76.13;102240.63;5058918;28;45434;-81
2022/07/07 09:31:53;;;;;;;;;1.00;1.00;;;;;23.86;76.04;102246.06;5027158;28;45320;-78
2022/07/07 09:34:20;;;;;;;;;3.00;2.00;;;;;23.95;76.37;102267.38;5059024;28;45845;-82
2022/07/07 09:39:48;;;;;;;;;0.00;0.00;;;;;23.74;75.44;102267.94;5097964;27;45944;-82
2022/07/07 09:42:31;;;;;;;;;2.00;2.00;;;;;23.55;76.98;102274.72;5096391;27;45923;-82
2022/07/07 09:45:03;;;;;;;;;1.75;1.75;;;;;23.42;77.51;102278.94;5079857;27;45206;-81
2022/07/07 09:47:29;;;;;;;;;4.50;3.50;;;;;23.25;78.68;102273.41;5081246;27;45277;-81
2022/07/07 09:50:04;;;;;;;;;3.75;2.50;;;;;23.15;79.73;102288.19;5062278;28;45294;-84
2022/07/07 09:52:31;;;;;;;;;1.25;1.00;;;;;23.07;80.82;102297.72;5078889;28;45181;-83
2022/07/07 09:54:58;;;;;;;;;2.00;1.00;;;;;22.98;80.80;102300.22;5077094;28;45461;-85
2022/07/07 09:57:25;;;;;;;;;1.50;1.00;;;;;22.93;81.21;102301.91;5079828;27;45450;-84
2022/07/07 09:59:51;;;;;;;;;2.00;2.00;;;;;22.86;81.45;102307.06;5086271;27;45540;-83
2022/07/07 10:02:19;;;;;;;;;2.00;2.00;;;;;22.85;80.75;102302.66;5081462;27;45319;-93
2022/07/07 10:04:49;;;;;;;;;3.00;3.00;;;;;22.82;79.71;102299.97;5081595;27;45481;-81
2022/07/07 10:07:18;;;;;;;;;1.00;1.00;;;;;22.81;79.09;102313.13;5099599;27;45417;-80
2022/07/07 10:09:48;;;;;;;;;2.25;1.00;;;;;22.87;78.93;102321.19;5098954;27;45965;-80
2022/07/07 10:12:16;;;;;;;;;2.50;2.00;;;;;22.94;78.88;102328.34;5105169;27;45386;-86
2022/07/07 10:14:43;;;;;;;;;2.00;1.50;;;;;23.05;79.24;102320.63;5095365;27;45398;-80
2022/07/07 10:17:10;;;;;;;;;2.00;2.00;;;;;23.14;78.54;102331.34;5087744;27;45328;-79
2022/07/07 10:19:36;;;;;;;;;2.00;2.00;;;;;23.17;78.08;102330.50;5088130;27;46076;-79
2022/07/07 10:22:04;;;;;;;;;1.75;1.75;;;;;23.13;77.54;102344.50;5081678;27;45463;-79
2022/07/07 10:24:32;;;;;;;;;2.25;2.00;;;;;23.13;77.85;102332.19;5081397;28;45422;-80
2022/07/07 10:27:00;;;;;;;;;3.00;2.00;;;;;23.22;77.28;102343.81;5063644;28;45485;-81
2022/07/07 10:29:50;;;;;;;;;2.00;2.00;;;;;23.37;77.93;102335.25;5059343;28;45252;-80
2022/07/07 10:32:37;;;;;;;;;2.00;2.00;;;;;23.53;77.14;102346.94;5067652;28;45410;-83
2022/07/07 10:35:14;;;;;;;;;2.50;2.00;;;;;23.72;76.61;102345.47;5081140;27;45413;-80
2022/07/07 10:37:44;;;;;;;;;3.00;2.00;;;;;23.90;76.07;102347.50;5077798;28;45240;-83
2022/07/07 10:40:17;;;;;;;;;6.00;5.00;;;;;24.01;75.56;102343.28;5080344;27;46313;-82
2022/07/07 10:43:19;;;;;;;;;2.25;2.25;;;;;24.03;74.79;102349.44;5078190;28;45674;-81
2022/07/07 10:45:47;;;;;;;;;2.00;2.00;;;;;23.99;73.82;102349.38;5059473;28;45275;-80
2022/07/07 10:48:46;;;;;;;;;3.00;2.00;;;;;23.95;74.42;102359.03;5078104;28;45589;-80
2022/07/07 10:51:15;;;;;;;;;4.00;2.75;;;;;23.90;73.69;102344.84;5059701;28;47661;-81
2022/07/07 10:54:01;;;;;;;;;1.50;1.50;;;;;23.85;73.99;102365.03;5078120;28;45240;-81
2022/07/07 10:56:48;;;;;;;;;3.75;3.75;;;;;23.78;73.56;102362.31;5059747;28;45340;-81
2022/07/07 10:59:13;;;;;;;;;3.25;2.25;;;;;23.76;73.95;102356.13;5082181;27;45422;-79
2022/07/07 11:02:02;;;;;;;;;3.00;3.00;;;;;23.85;73.82;102355.38;5077466;28;45763;-80
2022/07/07 11:04:43;;;;;;;;;5.25;3.75;;;;;23.99;73.99;102352.03;5093087;27;45717;-81
2022/07/07 11:07:16;;;;;;;;;3.00;3.00;;;;;24.05;73.86;102363.59;5077996;28;45714;-80
2022/07/07 11:10:04;;;;;;;;;5.00;3.00;;;;;24.03;73.80;102359.16;5077672;28;45429;-80
2022/07/07 11:12:47;;;;;;;;;3.00;3.00;;;;;23.93;73.59;102363.38;5076383;28;46122;-80
2022/07/07 11:15:22;;;;;;;;;3.00;3.00;;;;;23.86;73.79;102365.09;5077271;28;45719;-81
2022/07/07 11:17:56;;;;;;;;;4.25;3.00;;;;;23.83;74.56;102365.03;5077592;27;45507;-81
2022/07/07 11:20:24;;;;;;;;;1.50;1.50;;;;;23.87;74.94;102366.84;5082339;27;45511;-82
2022/07/07 11:23:05;;;;;;;;;3.25;3.25;;;;;23.99;74.62;102366.16;5097385;27;45575;-81
2022/07/07 11:25:30;;;;;;;;;3.00;2.00;;;;;24.14;73.83;102368.13;5094502;27;45706;-81